KDEN/DEN METAR and TAF weather

Enter ICAO airport designator
Station Type Date Time Source
KDEN METAR 2019/04/19 21:53 UTC NOAA

KDEN 192153Z VRB04KT 10SM FEW100 FEW200 21/M02 A3007 RMK AO2 SLP141 T02111022


Station Type Date Time Source
KDEN Decoded METAR 2019/04/19 21:53 UTC NOAA

DENVER INTERNATIONAL AIRPORT, CO, United States (KDEN) 39-52N 104-40W 1640M
Apr 19, 2019 - 05:53 PM EDT / 2019.04.19 2153 UTC
Wind: Variable at 5 MPH (4 KT):0
Visibility: 10 mile(s):0
Sky conditions: mostly clear
Temperature: 70.0 F (21.1 C)
Dew Point: 28.0 F (-2.2 C)
Relative Humidity: 20%
Pressure (altimeter): 30.07 in. Hg (1018 hPa)
ob: KDEN 192153Z VRB04KT 10SM FEW100 FEW200 21/M02 A3007 RMK AO2 SLP141 T02111022
cycle: 22

Station Type Date Time Source
KDEN TAF 2019/04/19 21:59 UTC NOAA

TAF
AMD KDEN 192059Z 1921/2024 09006KT P6SM FEW100
FM192300 12008KT P6SM FEW120
FM200300 20010KT P6SM SKC
FM202000 17010KT P6SM SCT120 BKN200

Example: see airport list